Amberson, Pennsylvania
Current Conditions -  °F | °C
As of 9:23 PM on Monday 22 Dec 2014 (Local Time) from KHGR Reporting Station
Haze Haze  
Wind Chill: 27°   Ceiling: 400
Heat Index: 33°   Visibility: 1.7mi
Dew Point: 31°   Wind: 7mph
Humidity: 92%   Direction: 330°NNW
Pressure: 30.13"   Gusts: NA
Location:  40.17°N, 77.68°W
Report Text: KHGR 230223Z 33006KT 1 3/4SM BR BKN004 OVC019 01/M01 A3013 RMK AO2 FZRAE17 P0000 I1000 T00061006
Loading
Personal Weather Stations






























Interactive Weather Map New forecast layout! Learn more

10-Day Weather Forecast

Advertisements
Track Severe Weather on mobile